Terminal Aerodrome Forecast
Issued by NWS Mt. Holly, NJ

Home | Current Version | Previous Version | Text Only | Print | Product List | Glossary On
Versions: 1 2 3 4 5 6 7 8 9 10 11 12 13 14
000
FTUS41 KPHI 242338
TAFACY
TAF
KACY 242338Z 2500/2524 10014G24KT P6SM -RA SCT035 OVC060
      TEMPO 2500/2501 4SM RA OVC030
     FM250100 12011KT 4SM RA OVC030
     FM251000 11013KT 6SM -RA OVC005
     FM251200 11011KT 3SM -DZ BR OVC003
     FM251500 10010KT 6SM BR OVC015=

USA.gov is the U.S. government's official web portal to all federal, state and local government web resources and services.